Erie, MI (48133)

6:05 PM EST on February 27, 2015 (GMT -0500)
South County, Erie, MI | Change Station
CLOSE
Current Station
Personal Weather Station
Location: Erie, MI
Elevation: 576 ft
Nearby Weather Stations

Elev 576 ft 41.76 °N, 83.50 °W | Updated 3 minutes ago

Clear
Clear
13.6 °F
Feels Like 5 °F
N
5.0
Wind Variable Wind from WSW
Gusts 6.0 mph

Today
High -- | Low -- °F
--% Chance of Precip.
Yesterday
High -- | Low -- °F
Precip. -- in
7:12 AM 6:21 PM
Waxing Gibbous, 72% visible
Pressure 30.60 in
Visibility 10.0 miles
Clouds Clear
Windchill 5 °F
Dew Point 1 °F
Humidity 57%
Rainfall 0.00 in
Snow Depth Not available.
UV 0 out of 12
Pollen .40 out of 12
Air Quality Not available.
Flu Activity Not available.
METAR KDUH 272254Z AUTO 24003KT 10SM CLR M08/M19 A3060 RMK AO2

More Conditions Fewer Conditions

Pressure 30.60 in
Visibility 10.0 miles
Clouds Clear
Windchill 5 °F
Dew Point 1 °F
Humidity 57%
Rainfall 0.00 in
Snow Depth Not available.
UV 0 out of 12
Pollen .40 out of 12
Air Quality Not available.
Flu Activity Not available.
METAR KDUH 272254Z AUTO 24003KT 10SM CLR M08/M19 A3060 RMK AO2

More Conditions Fewer Conditions

10-Day Weather Forecast

Almanac

Astronomy

Feb. 27, 2015 Rise Set
Actual Time
Civil Twilight
Nautical Twilight
Astronomical Twilight
Moon
Length of Visible Light
Length of Day
Tomorrow will be .
, % of the Moon is Illuminated

Today's Extremes

State Highs State Lows

Community

WunderPhotos

Upload Photos

1,800,873 photos uploaded!

WunderBlogs® & News

Nearby

Air Quality

  Air Quality AQ Index Pollutant
Not available.

Snow Depth

Station Depth Elevation

Earthquake Activity

City Distance Mag. Time & Date
Minimum magnitude displayed is 2.5.

Coastal Water Temperatures

Place Temperature

Nearby Weather Stations